Terminal Aerodrome Forecast
Issued by NWS

Current Version | Previous Version | Graphics & Text | Print | Product List | Glossary On
Versions: 1 2 3 4 5 6 7 8 9 10 11 12 13 14 15 16 17 18 19 20 21 22
438
FTUS41 KRLX 221731
TAFCKB
TAF
KCKB 221731Z 2218/2318 25006KT P6SM SCT050
     FM221900 25004KT P6SM BKN050
     FM230100 VRB03KT P6SM BKN060
     FM230800 VRB03KT 6SM BR BKN200
     FM231300 22004KT P6SM SCT040=

USA.gov is the U.S. government's official web portal to all federal, state and local government web resources and services.